sensor_id;sensor_type;location;lat;lon;timestamp;P1;durP1;ratioP1;P2;durP2;ratioP2
73239;SDS011;61452;40.054;4.110;2023-02-04T00:01:05;3.45;;;1.02;;
73239;SDS011;61452;40.054;4.110;2023-02-04T00:06:07;2.35;;;1.00;;
73239;SDS011;61452;40.054;4.110;2023-02-04T00:11:09;3.58;;;1.20;;
73239;SDS011;61452;40.054;4.110;2023-02-04T00:16:11;2.90;;;1.00;;
73239;SDS011;61452;40.054;4.110;2023-02-04T00:21:14;2.25;;;0.75;;
73239;SDS011;61452;40.054;4.110;2023-02-04T00:26:16;3.00;;;0.93;;
73239;SDS011;61452;40.054;4.110;2023-02-04T00:31:18;3.72;;;1.40;;
73239;SDS011;61452;40.054;4.110;2023-02-04T00:36:21;2.97;;;0.85;;
73239;SDS011;61452;40.054;4.110;2023-02-04T00:41:24;4.30;;;1.05;;
73239;SDS011;61452;40.054;4.110;2023-02-04T00:46:27;2.47;;;1.10;;
73239;SDS011;61452;40.054;4.110;2023-02-04T00:51:31;3.47;;;0.95;;
73239;SDS011;61452;40.054;4.110;2023-02-04T00:56:33;1.33;;;0.60;;
73239;SDS011;61452;40.054;4.110;2023-02-04T01:01:36;3.17;;;0.93;;
73239;SDS011;61452;40.054;4.110;2023-02-04T01:06:38;2.45;;;0.82;;
73239;SDS011;61452;40.054;4.110;2023-02-04T01:11:41;3.28;;;0.85;;
73239;SDS011;61452;40.054;4.110;2023-02-04T01:16:43;2.83;;;1.00;;
73239;SDS011;61452;40.054;4.110;2023-02-04T01:21:46;2.97;;;1.13;;
73239;SDS011;61452;40.054;4.110;2023-02-04T01:26:48;2.47;;;0.90;;
73239;SDS011;61452;40.054;4.110;2023-02-04T01:31:51;2.47;;;1.10;;
73239;SDS011;61452;40.054;4.110;2023-02-04T01:36:53;4.05;;;0.98;;
73239;SDS011;61452;40.054;4.110;2023-02-04T01:41:55;2.47;;;0.90;;
73239;SDS011;61452;40.054;4.110;2023-02-04T01:46:59;2.38;;;1.13;;
73239;SDS011;61452;40.054;4.110;2023-02-04T01:52:01;4.35;;;1.20;;
73239;SDS011;61452;40.054;4.110;2023-02-04T01:57:05;7.85;;;1.42;;
73239;SDS011;61452;40.054;4.110;2023-02-04T02:07:35;3.08;;;0.95;;
73239;SDS011;61452;40.054;4.110;2023-02-04T02:12:38;4.30;;;1.30;;
73239;SDS011;61452;40.054;4.110;2023-02-04T02:17:42;2.45;;;1.10;;
73239;SDS011;61452;40.054;4.110;2023-02-04T02:28:21;4.72;;;1.40;;
73239;SDS011;61452;40.054;4.110;2023-02-04T02:33:25;2.95;;;1.15;;
73239;SDS011;61452;40.054;4.110;2023-02-04T02:38:27;2.47;;;1.10;;
73239;SDS011;61452;40.054;4.110;2023-02-04T02:43:29;4.10;;;1.10;;
73239;SDS011;61452;40.054;4.110;2023-02-04T02:48:32;4.05;;;1.20;;
73239;SDS011;61452;40.054;4.110;2023-02-04T02:53:34;4.72;;;1.50;;
73239;SDS011;61452;40.054;4.110;2023-02-04T02:58:37;5.80;;;1.63;;
73239;SDS011;61452;40.054;4.110;2023-02-04T03:03:58;6.30;;;1.70;;
73239;SDS011;61452;40.054;4.110;2023-02-04T03:09:00;6.63;;;1.75;;
73239;SDS011;61452;40.054;4.110;2023-02-04T03:14:03;5.60;;;1.70;;
73239;SDS011;61452;40.054;4.110;2023-02-04T03:19:07;4.47;;;1.40;;
73239;SDS011;61452;40.054;4.110;2023-02-04T03:24:09;5.82;;;1.50;;
73239;SDS011;61452;40.054;4.110;2023-02-04T03:29:12;5.45;;;1.55;;
73239;SDS011;61452;40.054;4.110;2023-02-04T03:34:14;6.75;;;2.35;;
73239;SDS011;61452;40.054;4.110;2023-02-04T03:39:17;5.00;;;1.80;;
73239;SDS011;61452;40.054;4.110;2023-02-04T03:44:19;5.85;;;1.40;;
73239;SDS011;61452;40.054;4.110;2023-02-04T03:49:22;3.40;;;1.48;;
73239;SDS011;61452;40.054;4.110;2023-02-04T03:54:25;4.70;;;1.75;;
73239;SDS011;61452;40.054;4.110;2023-02-04T03:59:27;3.85;;;1.40;;
73239;SDS011;61452;40.054;4.110;2023-02-04T04:04:29;4.95;;;2.05;;
73239;SDS011;61452;40.054;4.110;2023-02-04T04:09:31;5.18;;;2.45;;
73239;SDS011;61452;40.054;4.110;2023-02-04T04:14:33;5.13;;;1.67;;
73239;SDS011;61452;40.054;4.110;2023-02-04T04:19:36;5.75;;;1.65;;
73239;SDS011;61452;40.054;4.110;2023-02-04T04:24:38;4.75;;;1.50;;
73239;SDS011;61452;40.054;4.110;2023-02-04T04:29:40;6.40;;;1.65;;
73239;SDS011;61452;40.054;4.110;2023-02-04T04:34:43;3.85;;;1.40;;
73239;SDS011;61452;40.054;4.110;2023-02-04T04:39:45;3.28;;;1.38;;
73239;SDS011;61452;40.054;4.110;2023-02-04T04:44:47;4.75;;;1.80;;
73239;SDS011;61452;40.054;4.110;2023-02-04T04:49:49;5.82;;;1.90;;
73239;SDS011;61452;40.054;4.110;2023-02-04T04:54:52;5.20;;;1.70;;
73239;SDS011;61452;40.054;4.110;2023-02-04T04:59:54;3.47;;;1.70;;
73239;SDS011;61452;40.054;4.110;2023-02-04T05:04:56;4.53;;;1.60;;
73239;SDS011;61452;40.054;4.110;2023-02-04T05:09:58;5.15;;;1.58;;
73239;SDS011;61452;40.054;4.110;2023-02-04T05:15:01;3.80;;;1.92;;
73239;SDS011;61452;40.054;4.110;2023-02-04T05:20:03;5.55;;;1.88;;
73239;SDS011;61452;40.054;4.110;2023-02-04T05:25:06;4.70;;;1.73;;
73239;SDS011;61452;40.054;4.110;2023-02-04T05:30:09;3.78;;;1.80;;
73239;SDS011;61452;40.054;4.110;2023-02-04T05:35:12;8.65;;;1.67;;
73239;SDS011;61452;40.054;4.110;2023-02-04T05:40:14;5.35;;;1.70;;
73239;SDS011;61452;40.054;4.110;2023-02-04T05:45:17;6.82;;;2.13;;
73239;SDS011;61452;40.054;4.110;2023-02-04T05:50:19;7.03;;;1.83;;
73239;SDS011;61452;40.054;4.110;2023-02-04T05:55:21;5.85;;;2.10;;
73239;SDS011;61452;40.054;4.110;2023-02-04T06:00:24;6.15;;;2.00;;
73239;SDS011;61452;40.054;4.110;2023-02-04T06:05:26;4.75;;;1.73;;
73239;SDS011;61452;40.054;4.110;2023-02-04T06:10:28;5.95;;;1.85;;
73239;SDS011;61452;40.054;4.110;2023-02-04T06:15:31;6.97;;;1.50;;
73239;SDS011;61452;40.054;4.110;2023-02-04T06:20:33;5.70;;;1.85;;
73239;SDS011;61452;40.054;4.110;2023-02-04T06:25:36;6.18;;;1.80;;
73239;SDS011;61452;40.054;4.110;2023-02-04T06:30:38;6.68;;;1.70;;
73239;SDS011;61452;40.054;4.110;2023-02-04T06:35:40;5.18;;;1.70;;
73239;SDS011;61452;40.054;4.110;2023-02-04T06:40:42;3.63;;;1.45;;
73239;SDS011;61452;40.054;4.110;2023-02-04T06:45:44;6.25;;;1.88;;
73239;SDS011;61452;40.054;4.110;2023-02-04T06:50:46;5.70;;;1.85;;
73239;SDS011;61452;40.054;4.110;2023-02-04T06:55:48;5.10;;;1.60;;
73239;SDS011;61452;40.054;4.110;2023-02-04T07:00:51;8.52;;;1.92;;
73239;SDS011;61452;40.054;4.110;2023-02-04T07:05:53;4.63;;;1.60;;
73239;SDS011;61452;40.054;4.110;2023-02-04T07:10:55;5.93;;;1.80;;
73239;SDS011;61452;40.054;4.110;2023-02-04T07:15:57;4.30;;;1.60;;
73239;SDS011;61452;40.054;4.110;2023-02-04T07:20:59;4.60;;;1.70;;
73239;SDS011;61452;40.054;4.110;2023-02-04T07:26:02;4.93;;;1.90;;
73239;SDS011;61452;40.054;4.110;2023-02-04T07:31:04;4.15;;;1.65;;
73239;SDS011;61452;40.054;4.110;2023-02-04T07:36:06;4.50;;;1.65;;
73239;SDS011;61452;40.054;4.110;2023-02-04T07:41:08;3.88;;;1.90;;
73239;SDS011;61452;40.054;4.110;2023-02-04T07:46:11;4.63;;;1.90;;
73239;SDS011;61452;40.054;4.110;2023-02-04T07:51:13;5.60;;;1.80;;
73239;SDS011;61452;40.054;4.110;2023-02-04T07:56:15;9.90;;;2.22;;
73239;SDS011;61452;40.054;4.110;2023-02-04T08:01:17;4.03;;;1.70;;
73239;SDS011;61452;40.054;4.110;2023-02-04T08:28:58;6.25;;;2.10;;
73239;SDS011;61452;40.054;4.110;2023-02-04T08:34:01;4.60;;;2.00;;
73239;SDS011;61452;40.054;4.110;2023-02-04T08:39:03;9.48;;;1.90;;
73239;SDS011;61452;40.054;4.110;2023-02-04T08:44:05;8.57;;;2.28;;
73239;SDS011;61452;40.054;4.110;2023-02-04T08:49:07;8.27;;;2.38;;
73239;SDS011;61452;40.054;4.110;2023-02-04T08:54:10;6.75;;;2.00;;
73239;SDS011;61452;40.054;4.110;2023-02-04T08:59:12;6.10;;;2.05;;
73239;SDS011;61452;40.054;4.110;2023-02-04T09:04:14;6.47;;;1.65;;
73239;SDS011;61452;40.054;4.110;2023-02-04T09:09:17;7.22;;;2.33;;
73239;SDS011;61452;40.054;4.110;2023-02-04T09:14:22;8.45;;;2.10;;
73239;SDS011;61452;40.054;4.110;2023-02-04T09:19:24;5.50;;;2.00;;
73239;SDS011;61452;40.054;4.110;2023-02-04T09:24:27;10.52;;;2.20;;
73239;SDS011;61452;40.054;4.110;2023-02-04T09:29:29;4.68;;;1.67;;
73239;SDS011;61452;40.054;4.110;2023-02-04T09:34:31;8.07;;;2.33;;
73239;SDS011;61452;40.054;4.110;2023-02-04T09:39:33;7.15;;;1.92;;
73239;SDS011;61452;40.054;4.110;2023-02-04T09:44:36;6.35;;;2.13;;
73239;SDS011;61452;40.054;4.110;2023-02-04T09:49:39;9.13;;;2.50;;
73239;SDS011;61452;40.054;4.110;2023-02-04T09:54:41;7.10;;;2.50;;
73239;SDS011;61452;40.054;4.110;2023-02-04T09:59:45;10.48;;;2.47;;
73239;SDS011;61452;40.054;4.110;2023-02-04T10:04:48;10.15;;;2.88;;
73239;SDS011;61452;40.054;4.110;2023-02-04T10:09:52;8.93;;;2.35;;
73239;SDS011;61452;40.054;4.110;2023-02-04T10:14:55;8.30;;;2.05;;
73239;SDS011;61452;40.054;4.110;2023-02-04T10:19:57;11.23;;;2.22;;
73239;SDS011;61452;40.054;4.110;2023-02-04T10:24:59;9.23;;;2.67;;
73239;SDS011;61452;40.054;4.110;2023-02-04T10:30:01;9.82;;;2.95;;
73239;SDS011;61452;40.054;4.110;2023-02-04T10:35:04;7.72;;;2.25;;
73239;SDS011;61452;40.054;4.110;2023-02-04T10:40:28;14.45;;;4.70;;
73239;SDS011;61452;40.054;4.110;2023-02-04T10:45:33;9.05;;;2.40;;
73239;SDS011;61452;40.054;4.110;2023-02-04T10:50:35;10.70;;;2.42;;
73239;SDS011;61452;40.054;4.110;2023-02-04T10:55:38;9.52;;;2.50;;
73239;SDS011;61452;40.054;4.110;2023-02-04T11:00:40;11.73;;;2.80;;
73239;SDS011;61452;40.054;4.110;2023-02-04T11:05:42;6.40;;;2.15;;
73239;SDS011;61452;40.054;4.110;2023-02-04T11:10:45;10.10;;;3.10;;
73239;SDS011;61452;40.054;4.110;2023-02-04T11:15:48;13.30;;;2.72;;
73239;SDS011;61452;40.054;4.110;2023-02-04T11:20:52;10.57;;;2.80;;
73239;SDS011;61452;40.054;4.110;2023-02-04T11:31:38;8.18;;;2.15;;
73239;SDS011;61452;40.054;4.110;2023-02-04T11:41:59;13.38;;;3.08;;
73239;SDS011;61452;40.054;4.110;2023-02-04T11:47:01;13.13;;;3.70;;
73239;SDS011;61452;40.054;4.110;2023-02-04T11:52:11;14.68;;;2.80;;
73239;SDS011;61452;40.054;4.110;2023-02-04T11:57:15;10.20;;;2.40;;
73239;SDS011;61452;40.054;4.110;2023-02-04T12:07:26;14.55;;;2.90;;
73239;SDS011;61452;40.054;4.110;2023-02-04T12:12:29;17.67;;;3.83;;
73239;SDS011;61452;40.054;4.110;2023-02-04T12:17:31;11.60;;;3.30;;
73239;SDS011;61452;40.054;4.110;2023-02-04T12:22:34;9.70;;;3.03;;
73239;SDS011;61452;40.054;4.110;2023-02-04T12:27:36;12.95;;;3.30;;
73239;SDS011;61452;40.054;4.110;2023-02-04T12:32:38;13.77;;;2.92;;
73239;SDS011;61452;40.054;4.110;2023-02-04T12:37:40;8.45;;;3.13;;
73239;SDS011;61452;40.054;4.110;2023-02-04T12:42:43;9.32;;;3.08;;
73239;SDS011;61452;40.054;4.110;2023-02-04T12:47:45;13.20;;;3.47;;
73239;SDS011;61452;40.054;4.110;2023-02-04T12:52:48;14.73;;;2.97;;
73239;SDS011;61452;40.054;4.110;2023-02-04T12:57:52;13.68;;;3.00;;
73239;SDS011;61452;40.054;4.110;2023-02-04T13:02:54;10.63;;;2.65;;
73239;SDS011;61452;40.054;4.110;2023-02-04T13:07:59;11.40;;;3.30;;
73239;SDS011;61452;40.054;4.110;2023-02-04T13:13:02;13.60;;;3.30;;
73239;SDS011;61452;40.054;4.110;2023-02-04T13:18:05;12.50;;;2.95;;
73239;SDS011;61452;40.054;4.110;2023-02-04T13:23:08;8.68;;;2.60;;
73239;SDS011;61452;40.054;4.110;2023-02-04T13:28:11;12.63;;;2.72;;
73239;SDS011;61452;40.054;4.110;2023-02-04T13:33:13;13.27;;;4.32;;
73239;SDS011;61452;40.054;4.110;2023-02-04T13:38:15;13.52;;;3.53;;
73239;SDS011;61452;40.054;4.110;2023-02-04T13:43:17;9.38;;;2.85;;
73239;SDS011;61452;40.054;4.110;2023-02-04T13:48:20;13.88;;;3.28;;
73239;SDS011;61452;40.054;4.110;2023-02-04T13:53:22;12.27;;;3.35;;
73239;SDS011;61452;40.054;4.110;2023-02-04T13:58:25;13.75;;;3.25;;
73239;SDS011;61452;40.054;4.110;2023-02-04T14:03:27;14.30;;;3.65;;
73239;SDS011;61452;40.054;4.110;2023-02-04T14:08:30;19.60;;;3.85;;
73239;SDS011;61452;40.054;4.110;2023-02-04T14:13:33;11.50;;;3.22;;
73239;SDS011;61452;40.054;4.110;2023-02-04T14:18:35;8.02;;;3.50;;
73239;SDS011;61452;40.054;4.110;2023-02-04T14:23:37;12.15;;;3.67;;
73239;SDS011;61452;40.054;4.110;2023-02-04T14:28:40;13.05;;;4.25;;
73239;SDS011;61452;40.054;4.110;2023-02-04T14:33:42;13.60;;;3.25;;
73239;SDS011;61452;40.054;4.110;2023-02-04T14:38:44;11.77;;;4.13;;
73239;SDS011;61452;40.054;4.110;2023-02-04T14:43:46;12.07;;;3.63;;
73239;SDS011;61452;40.054;4.110;2023-02-04T14:48:48;13.55;;;3.53;;
73239;SDS011;61452;40.054;4.110;2023-02-04T14:58:54;15.20;;;3.40;;
73239;SDS011;61452;40.054;4.110;2023-02-04T15:03:57;11.10;;;3.95;;
73239;SDS011;61452;40.054;4.110;2023-02-04T15:08:59;10.23;;;3.78;;
73239;SDS011;61452;40.054;4.110;2023-02-04T15:14:02;18.85;;;4.40;;
73239;SDS011;61452;40.054;4.110;2023-02-04T15:19:04;17.13;;;4.30;;
73239;SDS011;61452;40.054;4.110;2023-02-04T15:24:07;17.85;;;4.00;;
73239;SDS011;61452;40.054;4.110;2023-02-04T15:29:09;15.75;;;5.03;;
73239;SDS011;61452;40.054;4.110;2023-02-04T15:34:11;14.02;;;3.90;;
73239;SDS011;61452;40.054;4.110;2023-02-04T15:39:13;13.05;;;4.10;;
73239;SDS011;61452;40.054;4.110;2023-02-04T15:44:15;16.13;;;5.40;;
73239;SDS011;61452;40.054;4.110;2023-02-04T15:49:18;16.73;;;4.53;;
73239;SDS011;61452;40.054;4.110;2023-02-04T15:54:20;21.38;;;4.13;;
73239;SDS011;61452;40.054;4.110;2023-02-04T15:59:22;17.70;;;4.72;;
73239;SDS011;61452;40.054;4.110;2023-02-04T16:04:24;21.55;;;5.80;;
73239;SDS011;61452;40.054;4.110;2023-02-04T16:09:26;10.88;;;4.10;;
73239;SDS011;61452;40.054;4.110;2023-02-04T16:14:29;11.00;;;4.20;;
73239;SDS011;61452;40.054;4.110;2023-02-04T16:19:31;17.65;;;4.45;;
73239;SDS011;61452;40.054;4.110;2023-02-04T16:24:33;18.05;;;4.57;;
73239;SDS011;61452;40.054;4.110;2023-02-04T16:29:36;11.50;;;3.65;;
73239;SDS011;61452;40.054;4.110;2023-02-04T16:34:38;14.32;;;4.22;;
73239;SDS011;61452;40.054;4.110;2023-02-04T16:39:40;14.00;;;4.57;;
73239;SDS011;61452;40.054;4.110;2023-02-04T16:44:45;15.70;;;4.40;;
73239;SDS011;61452;40.054;4.110;2023-02-04T16:49:47;15.68;;;4.28;;
73239;SDS011;61452;40.054;4.110;2023-02-04T16:54:50;14.93;;;3.80;;
73239;SDS011;61452;40.054;4.110;2023-02-04T16:59:52;16.48;;;4.47;;
73239;SDS011;61452;40.054;4.110;2023-02-04T17:04:54;13.75;;;4.68;;
73239;SDS011;61452;40.054;4.110;2023-02-04T17:09:56;20.27;;;5.13;;
73239;SDS011;61452;40.054;4.110;2023-02-04T17:14:58;10.15;;;4.00;;
73239;SDS011;61452;40.054;4.110;2023-02-04T17:20:01;17.65;;;4.35;;
73239;SDS011;61452;40.054;4.110;2023-02-04T17:25:03;13.50;;;4.15;;
73239;SDS011;61452;40.054;4.110;2023-02-04T17:30:05;13.23;;;4.13;;
73239;SDS011;61452;40.054;4.110;2023-02-04T17:35:08;16.08;;;4.93;;
73239;SDS011;61452;40.054;4.110;2023-02-04T17:40:11;20.17;;;4.53;;
73239;SDS011;61452;40.054;4.110;2023-02-04T17:45:13;14.25;;;3.75;;
73239;SDS011;61452;40.054;4.110;2023-02-04T17:50:16;13.95;;;3.90;;
73239;SDS011;61452;40.054;4.110;2023-02-04T17:55:25;17.52;;;3.95;;
73239;SDS011;61452;40.054;4.110;2023-02-04T18:00:29;15.55;;;3.90;;
73239;SDS011;61452;40.054;4.110;2023-02-04T18:05:33;17.40;;;5.25;;
73239;SDS011;61452;40.054;4.110;2023-02-04T18:10:37;15.07;;;4.10;;
73239;SDS011;61452;40.054;4.110;2023-02-04T18:15:46;16.67;;;4.82;;
73239;SDS011;61452;40.054;4.110;2023-02-04T18:26:19;14.00;;;4.07;;
73239;SDS011;61452;40.054;4.110;2023-02-04T18:31:34;18.60;;;4.18;;
73239;SDS011;61452;40.054;4.110;2023-02-04T18:36:39;14.65;;;4.43;;
73239;SDS011;61452;40.054;4.110;2023-02-04T18:41:41;19.02;;;4.40;;
73239;SDS011;61452;40.054;4.110;2023-02-04T18:46:46;15.88;;;4.30;;
73239;SDS011;61452;40.054;4.110;2023-02-04T18:51:49;19.02;;;5.32;;
73239;SDS011;61452;40.054;4.110;2023-02-04T18:56:52;18.70;;;4.53;;
73239;SDS011;61452;40.054;4.110;2023-02-04T19:01:56;15.93;;;3.90;;
73239;SDS011;61452;40.054;4.110;2023-02-04T19:06:59;18.17;;;4.03;;
73239;SDS011;61452;40.054;4.110;2023-02-04T19:12:18;15.65;;;3.95;;
73239;SDS011;61452;40.054;4.110;2023-02-04T19:17:26;22.10;;;4.10;;
73239;SDS011;61452;40.054;4.110;2023-02-04T19:27:37;20.30;;;5.00;;
73239;SDS011;61452;40.054;4.110;2023-02-04T19:32:51;18.88;;;5.28;;
73239;SDS011;61452;40.054;4.110;2023-02-04T19:37:57;28.50;;;5.22;;
73239;SDS011;61452;40.054;4.110;2023-02-04T19:53:39;16.75;;;4.97;;
73239;SDS011;61452;40.054;4.110;2023-02-04T19:58:41;20.67;;;5.03;;
73239;SDS011;61452;40.054;4.110;2023-02-04T20:03:47;22.98;;;5.30;;
73239;SDS011;61452;40.054;4.110;2023-02-04T20:08:54;21.92;;;5.10;;
73239;SDS011;61452;40.054;4.110;2023-02-04T20:19:16;19.45;;;4.93;;
73239;SDS011;61452;40.054;4.110;2023-02-04T20:24:35;18.27;;;4.28;;
73239;SDS011;61452;40.054;4.110;2023-02-04T20:29:41;16.75;;;4.60;;
73239;SDS011;61452;40.054;4.110;2023-02-04T20:34:43;15.02;;;4.03;;
73239;SDS011;61452;40.054;4.110;2023-02-04T20:39:45;15.48;;;4.68;;
73239;SDS011;61452;40.054;4.110;2023-02-04T20:44:49;17.15;;;3.63;;
73239;SDS011;61452;40.054;4.110;2023-02-04T20:54:56;18.15;;;4.00;;
73239;SDS011;61452;40.054;4.110;2023-02-04T21:05:22;15.50;;;4.57;;
73239;SDS011;61452;40.054;4.110;2023-02-04T21:10:27;12.98;;;3.70;;
73239;SDS011;61452;40.054;4.110;2023-02-04T21:15:29;18.60;;;4.00;;
73239;SDS011;61452;40.054;4.110;2023-02-04T21:20:32;13.00;;;3.53;;
73239;SDS011;61452;40.054;4.110;2023-02-04T21:25:37;13.57;;;3.05;;
73239;SDS011;61452;40.054;4.110;2023-02-04T21:30:39;15.25;;;3.28;;
73239;SDS011;61452;40.054;4.110;2023-02-04T21:35:42;16.45;;;3.88;;
73239;SDS011;61452;40.054;4.110;2023-02-04T21:40:44;15.95;;;3.47;;
73239;SDS011;61452;40.054;4.110;2023-02-04T21:45:46;20.55;;;3.95;;
73239;SDS011;61452;40.054;4.110;2023-02-04T21:50:48;16.25;;;3.80;;
73239;SDS011;61452;40.054;4.110;2023-02-04T21:55:51;12.20;;;3.65;;
73239;SDS011;61452;40.054;4.110;2023-02-04T22:00:53;17.73;;;4.10;;
73239;SDS011;61452;40.054;4.110;2023-02-04T22:05:55;16.13;;;3.38;;
73239;SDS011;61452;40.054;4.110;2023-02-04T22:10:57;18.17;;;4.22;;
73239;SDS011;61452;40.054;4.110;2023-02-04T22:16:01;18.67;;;3.17;;
73239;SDS011;61452;40.054;4.110;2023-02-04T22:21:03;15.68;;;3.38;;
73239;SDS011;61452;40.054;4.110;2023-02-04T22:26:05;14.85;;;3.60;;
73239;SDS011;61452;40.054;4.110;2023-02-04T22:31:08;16.40;;;3.50;;
73239;SDS011;61452;40.054;4.110;2023-02-04T22:36:10;16.05;;;3.65;;
73239;SDS011;61452;40.054;4.110;2023-02-04T22:41:15;24.23;;;3.78;;
73239;SDS011;61452;40.054;4.110;2023-02-04T22:46:17;14.73;;;3.58;;
73239;SDS011;61452;40.054;4.110;2023-02-04T22:51:20;16.23;;;4.20;;
73239;SDS011;61452;40.054;4.110;2023-02-04T22:56:22;17.83;;;3.72;;
73239;SDS011;61452;40.054;4.110;2023-02-04T23:01:24;21.98;;;4.13;;
73239;SDS011;61452;40.054;4.110;2023-02-04T23:06:27;26.02;;;4.93;;
73239;SDS011;61452;40.054;4.110;2023-02-04T23:11:29;19.92;;;3.85;;
73239;SDS011;61452;40.054;4.110;2023-02-04T23:16:31;17.80;;;3.92;;
73239;SDS011;61452;40.054;4.110;2023-02-04T23:21:33;18.42;;;4.18;;
73239;SDS011;61452;40.054;4.110;2023-02-04T23:26:36;22.52;;;4.35;;
73239;SDS011;61452;40.054;4.110;2023-02-04T23:31:38;19.80;;;4.00;;
73239;SDS011;61452;40.054;4.110;2023-02-04T23:36:40;16.75;;;4.10;;
73239;SDS011;61452;40.054;4.110;2023-02-04T23:41:43;22.67;;;4.40;;
73239;SDS011;61452;40.054;4.110;2023-02-04T23:46:45;22.85;;;4.30;;
73239;SDS011;61452;40.054;4.110;2023-02-04T23:51:47;31.90;;;5.50;;
73239;SDS011;61452;40.054;4.110;2023-02-04T23:56:50;15.27;;;3.97;;
